Time;durP1;ratioP1;P1;durP2;ratioP2;P2;SDS_P1;SDS_P2;PMS_P1;PMS_P2;Temp;Humidity;BMP_temperature;BMP_pressure;BME280_temperature;BME280_humidity;BME280_pressure;Samples;Min_cycle;Max_cycle;Signal;HPM_P1;HPM_P2
2020/12/05 00:01:37;;;;;;;33.10;20.07;;;4.70;99.90;;;;;;5036313;28;20456;-60
2020/12/05 00:04:03;;;;;;;32.70;20.80;;;4.70;99.90;;;;;;5035734;28;20456;-60
2020/12/05 00:06:29;;;;;;;28.67;19.40;;;4.70;99.90;;;;;;5035660;28;20456;-61
2020/12/05 00:08:55;;;;;;;31.67;19.73;;;4.80;99.90;;;;;;5036234;28;20447;-66
2020/12/05 00:11:25;;;;;;;32.60;21.13;;;4.80;99.90;;;;;;5035514;28;20935;-65
2020/12/05 00:13:52;;;;;;;29.20;18.43;;;4.80;99.90;;;;;;5036197;28;20436;-65
2020/12/05 00:16:19;;;;;;;32.97;20.87;;;4.80;99.90;;;;;;5036037;28;20469;-65
2020/12/05 00:18:46;;;;;;;34.83;21.00;;;4.80;99.90;;;;;;5035548;28;21098;-62
2020/12/05 00:21:18;;;;;;;30.73;20.50;;;4.80;99.90;;;;;;5035806;28;20468;-61
2020/12/05 00:23:45;;;;;;;27.70;18.63;;;4.80;99.90;;;;;;5035604;28;20441;-60
2020/12/05 00:26:14;;;;;;;30.13;19.43;;;4.80;99.90;;;;;;5040067;28;20456;-61
2020/12/05 00:28:41;;;;;;;32.93;20.93;;;4.70;99.90;;;;;;5041982;28;20460;-65
2020/12/05 00:31:07;;;;;;;29.57;19.90;;;4.70;99.90;;;;;;5039918;28;20483;-71
2020/12/05 00:33:35;;;;;;;29.37;20.17;;;4.70;99.90;;;;;;5038512;28;20518;-64
2020/12/05 00:36:01;;;;;;;34.00;20.50;;;4.70;99.90;;;;;;5037983;28;20460;-68
2020/12/05 00:38:28;;;;;;;29.37;18.27;;;4.60;99.90;;;;;;5038021;28;20490;-66
2020/12/05 00:40:55;;;;;;;26.27;19.17;;;4.60;99.90;;;;;;5039013;28;20452;-65
2020/12/05 00:43:21;;;;;;;31.10;20.20;;;4.60;99.90;;;;;;5038733;28;20480;-67
2020/12/05 00:45:48;;;;;;;37.17;21.67;;;4.60;99.90;;;;;;5040015;28;20483;-60
2020/12/05 00:48:15;;;;;;;27.60;18.97;;;4.50;99.90;;;;;;5039453;28;20483;-62
2020/12/05 00:50:43;;;;;;;34.47;21.50;;;4.50;99.90;;;;;;5038898;28;20530;-62
2020/12/05 00:53:09;;;;;;;30.77;20.90;;;4.50;99.90;;;;;;5036853;28;20478;-64
2020/12/05 00:55:36;;;;;;;30.97;19.50;;;4.50;99.90;;;;;;5036479;28;20455;-68
2020/12/05 00:58:02;;;;;;;33.47;19.30;;;4.40;99.90;;;;;;5035889;28;20480;-66
2020/12/05 01:00:29;;;;;;;34.37;20.17;;;4.40;99.90;;;;;;5035762;28;20452;-64
2020/12/05 01:02:56;;;;;;;29.47;19.80;;;4.40;99.90;;;;;;5035878;28;20457;-64
2020/12/05 01:05:22;;;;;;;33.13;21.20;;;4.40;99.90;;;;;;5035663;28;20785;-64
2020/12/05 01:07:49;;;;;;;33.07;20.80;;;4.40;99.90;;;;;;5035302;28;20508;-64
2020/12/05 01:10:16;;;;;;;34.50;19.50;;;4.40;99.90;;;;;;5034926;28;20459;-70
2020/12/05 01:12:42;;;;;;;32.07;21.67;;;4.40;99.90;;;;;;5035296;28;20522;-71
2020/12/05 01:15:09;;;;;;;33.20;21.70;;;4.40;99.90;;;;;;5035991;28;20547;-71
2020/12/05 01:17:36;;;;;;;32.27;21.30;;;4.40;99.90;;;;;;5035663;28;20452;-61
2020/12/05 01:20:03;;;;;;;31.60;19.97;;;4.40;99.90;;;;;;5035353;28;20452;-61
2020/12/05 01:22:30;;;;;;;29.87;19.27;;;4.40;99.90;;;;;;5036422;28;20451;-60
2020/12/05 01:24:57;;;;;;;35.10;21.80;;;4.40;99.90;;;;;;5035204;28;20460;-61
2020/12/05 01:27:23;;;;;;;31.50;19.77;;;4.40;99.90;;;;;;5035076;28;20826;-70
2020/12/05 01:29:49;;;;;;;38.57;21.20;;;4.40;99.90;;;;;;5035652;28;20501;-70
2020/12/05 01:32:15;;;;;;;37.23;22.17;;;4.40;99.90;;;;;;5034842;28;20842;-60
2020/12/05 01:34:41;;;;;;;34.90;20.37;;;4.40;99.90;;;;;;5035383;28;20526;-61
2020/12/05 01:37:07;;;;;;;31.87;19.80;;;4.40;99.90;;;;;;5034914;28;20808;-61
2020/12/05 01:39:33;;;;;;;36.97;22.50;;;4.40;99.90;;;;;;5034932;28;20867;-71
2020/12/05 01:42:00;;;;;;;35.67;21.07;;;4.40;99.90;;;;;;5034508;28;20533;-60
2020/12/05 01:44:27;;;;;;;32.40;21.17;;;4.30;99.90;;;;;;5036045;28;20456;-61
2020/12/05 01:46:53;;;;;;;37.70;23.10;;;4.30;99.90;;;;;;5038444;28;20466;-60
2020/12/05 01:49:22;;;;;;;37.33;22.47;;;4.30;99.90;;;;;;5038763;28;20452;-61
2020/12/05 01:51:49;;;;;;;33.87;22.03;;;4.20;99.90;;;;;;5038944;28;20524;-60
2020/12/05 01:54:16;;;;;;;33.33;19.90;;;4.20;99.90;;;;;;5038791;28;20866;-61
2020/12/05 01:56:44;;;;;;;34.37;21.43;;;4.20;99.90;;;;;;5038427;28;20456;-70
2020/12/05 01:59:12;;;;;;;31.63;19.83;;;4.10;99.90;;;;;;5038625;28;20487;-61
2020/12/05 02:01:39;;;;;;;31.03;20.33;;;4.10;99.90;;;;;;5038125;28;20559;-61
2020/12/05 02:04:05;;;;;;;37.50;20.87;;;4.10;99.90;;;;;;5038544;28;20455;-62
2020/12/05 02:06:47;;;;;;;36.47;20.30;;;4.10;99.90;;;;;;5038532;28;20455;-61
2020/12/05 02:09:18;;;;;;;32.50;19.83;;;4.10;99.90;;;;;;5038745;28;20451;-69
2020/12/05 02:11:52;;;;;;;30.57;20.17;;;4.00;99.90;;;;;;5038815;28;20450;-61
2020/12/05 02:14:22;;;;;;;29.97;20.47;;;4.00;99.90;;;;;;5039049;28;20444;-59
2020/12/05 02:16:51;;;;;;;30.63;19.63;;;4.00;99.90;;;;;;5039519;28;20452;-61
2020/12/05 02:19:21;;;;;;;30.33;19.27;;;4.00;99.90;;;;;;5038618;28;20857;-60
2020/12/05 02:21:50;;;;;;;36.67;19.80;;;4.00;99.90;;;;;;5038691;28;20512;-69
2020/12/05 02:24:17;;;;;;;38.70;21.17;;;4.00;99.90;;;;;;5038552;28;20537;-61
2020/12/05 02:26:44;;;;;;;31.80;20.57;;;4.00;99.90;;;;;;5038077;28;20452;-61
2020/12/05 02:29:10;;;;;;;32.37;20.77;;;3.90;99.90;;;;;;5038179;28;20495;-61
2020/12/05 02:31:37;;;;;;;31.30;19.43;;;4.00;99.90;;;;;;5038130;28;20452;-61
2020/12/05 02:34:03;;;;;;;28.67;19.17;;;4.00;99.90;;;;;;5037739;28;20455;-65
2020/12/05 02:36:32;;;;;;;30.20;19.50;;;4.00;99.90;;;;;;5037995;28;20452;-60
2020/12/05 02:39:03;;;;;;;31.03;20.67;;;4.00;99.90;;;;;;5037942;28;20475;-69
2020/12/05 02:41:36;;;;;;;28.70;18.63;;;4.00;99.90;;;;;;5037317;28;20436;-70
2020/12/05 02:44:02;;;;;;;33.13;19.50;;;4.10;99.90;;;;;;5037760;28;20497;-71
2020/12/05 02:46:28;;;;;;;29.83;19.33;;;4.10;99.90;;;;;;5037406;28;20514;-70
2020/12/05 02:48:54;;;;;;;26.10;16.60;;;4.10;99.90;;;;;;5037682;28;20460;-60
2020/12/05 02:51:20;;;;;;;28.23;17.67;;;4.20;99.90;;;;;;5037276;28;20951;-69
2020/12/05 02:53:46;;;;;;;31.57;19.80;;;4.20;99.90;;;;;;5037788;28;20522;-69
2020/12/05 02:56:16;;;;;;;29.17;18.50;;;4.20;99.90;;;;;;5037392;28;20456;-70
2020/12/05 02:58:43;;;;;;;27.67;17.60;;;4.30;99.90;;;;;;5037437;28;20544;-61
2020/12/05 03:01:10;;;;;;;30.43;19.00;;;4.30;99.90;;;;;;5037289;28;20521;-69
2020/12/05 03:03:36;;;;;;;27.60;18.97;;;4.30;99.90;;;;;;5037057;28;20502;-69
2020/12/05 03:06:02;;;;;;;28.27;18.23;;;4.30;99.90;;;;;;5037041;28;20464;-69
2020/12/05 03:08:28;;;;;;;27.67;17.80;;;4.30;99.90;;;;;;5037054;28;20448;-68
2020/12/05 03:10:55;;;;;;;26.03;18.60;;;4.30;99.90;;;;;;5037235;28;21021;-61
2020/12/05 03:13:21;;;;;;;28.73;18.90;;;4.30;99.90;;;;;;5037372;28;20457;-61
2020/12/05 03:15:48;;;;;;;26.30;17.70;;;4.30;99.90;;;;;;5037118;28;20456;-60
2020/12/05 03:18:14;;;;;;;25.10;16.77;;;4.30;99.90;;;;;;5036984;28;20542;-60
2020/12/05 03:20:40;;;;;;;29.73;18.73;;;4.30;99.90;;;;;;5036768;28;20452;-60
2020/12/05 03:23:06;;;;;;;25.17;16.77;;;4.20;99.90;;;;;;5036813;28;20448;-61
2020/12/05 03:25:32;;;;;;;32.07;19.50;;;4.20;99.90;;;;;;5036659;28;20452;-69
2020/12/05 03:27:58;;;;;;;33.97;19.20;;;4.30;99.90;;;;;;5036440;28;20986;-69
2020/12/05 03:30:24;;;;;;;29.53;17.33;;;4.30;99.90;;;;;;5036429;28;20460;-68
2020/12/05 03:32:51;;;;;;;30.53;17.93;;;4.30;99.90;;;;;;5036437;28;20456;-69
2020/12/05 03:35:18;;;;;;;26.97;18.20;;;4.30;99.90;;;;;;5036318;28;20452;-69
2020/12/05 03:37:44;;;;;;;26.80;17.67;;;4.30;99.90;;;;;;5036644;28;20513;-60
2020/12/05 03:40:10;;;;;;;28.83;17.90;;;4.20;99.90;;;;;;5036652;28;20464;-68
2020/12/05 03:42:38;;;;;;;28.00;17.67;;;4.20;99.90;;;;;;5036314;28;20542;-59
2020/12/05 03:45:04;;;;;;;27.80;16.53;;;4.20;99.90;;;;;;5036419;28;20488;-60
2020/12/05 03:47:30;;;;;;;28.40;18.93;;;4.20;99.90;;;;;;5036077;28;20983;-60
2020/12/05 03:49:57;;;;;;;28.10;17.50;;;4.20;99.90;;;;;;5036388;28;20518;-69
2020/12/05 03:52:23;;;;;;;30.80;18.43;;;4.20;99.90;;;;;;5036363;28;20550;-70
2020/12/05 03:54:49;;;;;;;25.43;17.97;;;4.20;99.90;;;;;;5035861;28;20518;-69
2020/12/05 03:57:15;;;;;;;26.40;17.33;;;4.20;99.90;;;;;;5036312;28;20456;-60
2020/12/05 03:59:42;;;;;;;24.33;17.07;;;4.20;99.90;;;;;;5036364;28;20498;-60
2020/12/05 04:02:08;;;;;;;29.53;17.60;;;4.20;99.90;;;;;;5036568;28;20556;-61
2020/12/05 04:04:34;;;;;;;28.70;18.43;;;4.30;99.90;;;;;;5036278;28;20452;-68
2020/12/05 04:07:01;;;;;;;26.40;17.30;;;4.30;99.90;;;;;;5035548;28;20460;-69
2020/12/05 04:09:27;;;;;;;26.23;18.50;;;4.30;99.90;;;;;;5035673;28;20905;-68
2020/12/05 04:11:53;;;;;;;31.30;18.63;;;4.40;99.90;;;;;;5037258;28;20456;-69
2020/12/05 04:14:19;;;;;;;24.60;17.07;;;4.40;99.90;;;;;;5035826;28;20979;-60
2020/12/05 04:16:45;;;;;;;29.70;18.87;;;4.40;99.90;;;;;;5036048;28;20460;-60
2020/12/05 04:19:11;;;;;;;27.53;18.73;;;4.30;99.90;;;;;;5035953;28;20488;-60
2020/12/05 04:21:37;;;;;;;28.90;17.13;;;4.30;99.90;;;;;;5036039;28;20452;-61
2020/12/05 04:24:04;;;;;;;28.77;18.10;;;4.20;99.90;;;;;;5036114;28;20916;-60
2020/12/05 04:26:30;;;;;;;27.60;19.30;;;4.20;99.90;;;;;;5035940;28;20452;-61
2020/12/05 04:28:56;;;;;;;31.30;18.47;;;4.20;99.90;;;;;;5035968;28;20510;-70
2020/12/05 04:31:22;;;;;;;30.03;18.07;;;4.10;99.90;;;;;;5036069;28;20598;-61
2020/12/05 04:33:49;;;;;;;24.07;16.30;;;4.10;99.90;;;;;;5037115;28;20526;-61
2020/12/05 04:36:15;;;;;;;26.70;16.43;;;4.10;99.90;;;;;;5037677;28;20478;-69
2020/12/05 04:38:41;;;;;;;30.00;18.00;;;4.10;99.90;;;;;;5039393;28;20514;-69
2020/12/05 04:41:08;;;;;;;28.50;17.00;;;4.00;99.90;;;;;;5043671;28;20455;-69
2020/12/05 04:43:35;;;;;;;27.83;17.47;;;4.00;99.90;;;;;;5036422;28;20490;-61
2020/12/05 04:46:02;;;;;;;24.00;16.20;;;4.00;99.90;;;;;;5035871;28;20452;-70
2020/12/05 04:48:30;;;;;;;28.80;17.60;;;4.10;99.90;;;;;;5036415;28;20460;-70
2020/12/05 04:51:01;;;;;;;25.70;16.13;;;4.10;99.90;;;;;;5034837;28;20905;-70
2020/12/05 04:53:28;;;;;;;27.37;17.03;;;4.10;99.90;;;;;;5035095;28;20865;-60
2020/12/05 04:55:59;;;;;;;27.50;14.80;;;4.20;99.90;;;;;;5035186;28;20453;-70
2020/12/05 04:58:26;;;;;;;26.67;15.47;;;4.20;99.90;;;;;;5034987;28;20575;-70
2020/12/05 05:00:54;;;;;;;27.10;17.27;;;4.30;99.90;;;;;;5034680;28;20456;-61
2020/12/05 05:03:22;;;;;;;23.00;16.23;;;4.30;99.90;;;;;;5035112;28;20841;-60
2020/12/05 05:05:49;;;;;;;22.80;15.10;;;4.40;99.90;;;;;;5035107;28;20452;-70
2020/12/05 05:08:15;;;;;;;26.57;16.57;;;4.40;99.90;;;;;;5035169;28;20510;-72
2020/12/05 05:10:42;;;;;;;23.90;14.53;;;4.40;99.90;;;;;;5034767;28;20519;-71
2020/12/05 05:13:14;;;;;;;25.47;16.00;;;4.40;99.90;;;;;;5034949;28;20462;-69
2020/12/05 05:15:42;;;;;;;21.97;15.10;;;4.50;99.90;;;;;;5035192;28;20774;-61
2020/12/05 05:18:09;;;;;;;23.30;15.87;;;4.50;99.90;;;;;;5034554;28;20459;-60
2020/12/05 05:20:38;;;;;;;25.70;15.90;;;4.50;99.90;;;;;;5038477;28;20456;-72
2020/12/05 05:23:13;;;;;;;23.93;15.43;;;4.50;99.90;;;;;;5039267;28;20452;-61
2020/12/05 05:25:53;;;;;;;23.20;15.23;;;4.40;99.90;;;;;;5038949;28;20869;-61
2020/12/05 05:28:25;;;;;;;26.23;14.87;;;4.50;99.90;;;;;;5039268;28;20436;-61
2020/12/05 05:30:55;;;;;;;23.43;15.20;;;4.40;99.90;;;;;;5038873;28;20433;-60
2020/12/05 05:33:22;;;;;;;24.60;15.13;;;4.40;99.90;;;;;;5038787;28;20459;-60
2020/12/05 05:35:48;;;;;;;23.43;15.23;;;4.40;99.90;;;;;;5038373;28;20467;-60
2020/12/05 05:38:20;;;;;;;21.20;15.63;;;4.40;99.90;;;;;;5038587;28;20518;-61
2020/12/05 05:40:47;;;;;;;27.40;15.77;;;4.40;99.90;;;;;;5038533;28;20535;-61
2020/12/05 05:43:15;;;;;;;21.53;13.67;;;4.40;99.90;;;;;;5038473;28;20479;-60
2020/12/05 05:45:41;;;;;;;25.97;14.77;;;4.40;99.90;;;;;;5038479;28;20555;-60
2020/12/05 05:48:08;;;;;;;26.27;16.10;;;4.40;99.90;;;;;;5038766;28;20464;-61
2020/12/05 05:50:36;;;;;;;18.90;13.90;;;4.30;99.90;;;;;;5038820;28;20521;-62
2020/12/05 05:53:03;;;;;;;24.17;14.77;;;4.30;99.90;;;;;;5038905;28;20963;-59
2020/12/05 05:55:42;;;;;;;25.40;14.03;;;4.30;99.90;;;;;;5038561;28;20456;-61
2020/12/05 05:58:09;;;;;;;28.47;14.73;;;4.30;99.90;;;;;;5038053;28;20436;-60
2020/12/05 06:00:38;;;;;;;26.33;15.50;;;4.30;99.90;;;;;;5038174;28;20567;-59
2020/12/05 06:03:17;;;;;;;24.23;14.70;;;4.20;99.90;;;;;;5038383;28;20456;-60
2020/12/05 06:05:45;;;;;;;21.50;14.70;;;4.20;99.90;;;;;;5038503;28;20432;-71
2020/12/05 06:08:16;;;;;;;21.03;14.20;;;4.20;99.90;;;;;;5037868;28;20494;-71
2020/12/05 06:10:53;;;;;;;26.63;15.83;;;4.20;99.90;;;;;;5038334;28;20889;-72
2020/12/05 06:13:23;;;;;;;21.53;15.13;;;4.20;99.90;;;;;;5038150;28;20750;-71
2020/12/05 06:15:50;;;;;;;21.53;14.57;;;4.20;99.90;;;;;;5038266;28;20455;-61
2020/12/05 06:18:17;;;;;;;24.03;15.40;;;4.20;99.90;;;;;;5037952;28;20459;-60
2020/12/05 06:20:45;;;;;;;23.73;15.77;;;4.20;99.90;;;;;;5038049;28;20518;-59
2020/12/05 06:23:20;;;;;;;24.33;14.90;;;4.20;99.90;;;;;;5037934;28;20514;-70
2020/12/05 06:25:51;;;;;;;25.33;16.00;;;4.20;99.90;;;;;;5038011;28;20448;-60
2020/12/05 06:28:17;;;;;;;24.50;16.37;;;4.10;99.90;;;;;;5037961;28;20498;-61
2020/12/05 06:30:45;;;;;;;24.50;15.13;;;4.10;99.90;;;;;;5037218;28;20838;-71
2020/12/05 06:33:11;;;;;;;24.50;16.77;;;4.10;99.90;;;;;;5037642;28;20514;-60
2020/12/05 06:35:38;;;;;;;25.40;15.57;;;4.10;99.90;;;;;;5037428;28;20456;-60
2020/12/05 06:38:04;;;;;;;23.20;15.60;;;4.10;99.90;;;;;;5037529;28;20460;-60
2020/12/05 06:40:39;;;;;;;26.10;15.53;;;4.10;99.90;;;;;;5037712;28;20475;-61
2020/12/05 06:43:12;;;;;;;23.20;16.17;;;4.10;99.90;;;;;;5037200;28;20493;-59
2020/12/05 06:45:40;;;;;;;22.87;14.57;;;4.10;99.90;;;;;;5037475;28;20447;-60
2020/12/05 06:48:33;;;;;;;21.10;14.70;;;4.10;99.90;;;;;;5037572;28;20754;-60
2020/12/05 06:51:01;;;;;;;22.83;16.17;;;4.10;99.90;;;;;;5037311;28;20964;-61
2020/12/05 06:53:31;;;;;;;22.03;15.90;;;4.10;99.90;;;;;;5037733;28;20494;-60
2020/12/05 06:55:57;;;;;;;23.83;15.53;;;4.10;99.90;;;;;;5038045;28;20475;-60
2020/12/05 06:58:28;;;;;;;25.37;16.07;;;4.10;99.90;;;;;;5038602;28;20463;-61
2020/12/05 07:00:54;;;;;;;28.70;17.17;;;4.10;99.90;;;;;;5038953;28;20460;-69
2020/12/05 07:03:25;;;;;;;22.80;15.17;;;4.10;99.90;;;;;;5039285;28;20513;-61
2020/12/05 07:05:51;;;;;;;21.87;15.77;;;4.10;99.90;;;;;;5038735;28;20466;-61
2020/12/05 07:08:27;;;;;;;20.80;14.13;;;4.20;99.90;;;;;;5037919;28;20517;-60
2020/12/05 07:10:57;;;;;;;22.03;15.80;;;4.20;99.90;;;;;;5038077;28;20436;-60
2020/12/05 07:13:25;;;;;;;24.93;14.90;;;4.20;99.90;;;;;;5038254;28;20513;-60
2020/12/05 07:15:52;;;;;;;20.93;15.70;;;4.20;99.90;;;;;;5037912;28;20840;-71
2020/12/05 07:18:26;;;;;;;22.03;15.37;;;4.20;99.90;;;;;;5038373;28;20832;-70
2020/12/05 07:20:54;;;;;;;27.90;16.17;;;4.30;99.90;;;;;;5038103;28;20935;-71
2020/12/05 07:23:21;;;;;;;20.60;15.30;;;4.30;99.90;;;;;;5037369;28;20456;-71
2020/12/05 07:25:47;;;;;;;21.90;14.60;;;4.30;99.90;;;;;;5037606;28;20514;-70
2020/12/05 07:28:14;;;;;;;22.67;14.30;;;4.30;99.90;;;;;;5037868;28;20993;-70
2020/12/05 07:30:40;;;;;;;22.03;15.10;;;4.40;99.90;;;;;;5037337;28;20459;-69
2020/12/05 07:33:07;;;;;;;24.33;15.10;;;4.40;99.90;;;;;;5036779;28;20913;-71
2020/12/05 07:35:35;;;;;;;19.63;13.70;;;4.50;99.90;;;;;;5036738;28;20850;-70
2020/12/05 07:38:02;;;;;;;19.50;13.53;;;4.50;99.90;;;;;;5036572;28;20495;-70
2020/12/05 07:40:28;;;;;;;20.00;14.13;;;4.50;99.90;;;;;;5037002;28;20488;-72
2020/12/05 07:42:56;;;;;;;22.30;14.30;;;4.60;99.90;;;;;;5035962;28;20890;-69
2020/12/05 07:45:22;;;;;;;19.10;13.43;;;4.60;99.90;;;;;;5037501;28;20459;-60
2020/12/05 07:47:48;;;;;;;23.63;13.80;;;4.70;99.90;;;;;;5036985;28;20506;-60
2020/12/05 07:50:15;;;;;;;21.00;13.40;;;4.70;99.90;;;;;;5036545;28;20901;-60
2020/12/05 07:52:42;;;;;;;20.03;14.43;;;4.80;99.90;;;;;;5036080;28;21051;-70
2020/12/05 07:55:10;;;;;;;19.37;13.80;;;4.90;99.90;;;;;;5036575;28;20486;-71
2020/12/05 07:57:39;;;;;;;20.47;12.97;;;4.90;99.90;;;;;;5036609;28;20452;-71
2020/12/05 08:00:07;;;;;;;18.07;12.47;;;5.00;99.90;;;;;;5035893;28;20483;-71
2020/12/05 08:02:46;;;;;;;25.20;13.10;;;5.00;99.90;;;;;;5036279;28;20452;-60
2020/12/05 08:05:22;;;;;;;18.80;13.47;;;5.10;99.90;;;;;;5036171;28;20502;-60
2020/12/05 08:07:56;;;;;;;20.93;14.87;;;5.10;99.90;;;;;;5036087;28;20773;-60
2020/12/05 08:10:24;;;;;;;19.87;13.70;;;5.20;99.90;;;;;;5036301;28;20471;-71
2020/12/05 08:13:24;;;;;;;21.90;14.10;;;5.20;99.90;;;;;;5036098;28;20522;-71
2020/12/05 08:16:01;;;;;;;19.60;13.90;;;5.20;99.90;;;;;;5035804;28;20436;-71
2020/12/05 08:18:29;;;;;;;21.30;14.13;;;5.30;99.90;;;;;;5035633;28;20952;-71
2020/12/05 08:20:55;;;;;;;18.87;13.60;;;5.30;99.90;;;;;;5035700;28;20526;-71
2020/12/05 08:23:23;;;;;;;17.20;13.60;;;5.30;99.90;;;;;;5035765;28;20766;-71
2020/12/05 08:25:51;;;;;;;18.60;13.63;;;5.40;99.90;;;;;;5035663;28;20832;-70
2020/12/05 08:28:20;;;;;;;18.60;14.03;;;5.40;99.90;;;;;;5035253;28;20978;-71
2020/12/05 08:30:47;;;;;;;20.70;13.50;;;5.50;99.90;;;;;;5035578;28;20437;-71
2020/12/05 08:33:15;;;;;;;18.67;13.47;;;5.50;99.90;;;;;;5036131;28;20522;-70
2020/12/05 08:35:42;;;;;;;20.40;14.50;;;5.50;99.90;;;;;;5035562;28;20456;-71
2020/12/05 08:38:11;;;;;;;22.17;14.23;;;5.60;99.90;;;;;;5035669;28;20781;-60
2020/12/05 08:40:38;;;;;;;18.23;12.80;;;5.70;99.90;;;;;;5035467;28;20506;-61
2020/12/05 08:43:04;;;;;;;22.57;15.20;;;5.70;99.90;;;;;;5035552;28;20484;-61
2020/12/05 08:45:30;;;;;;;22.47;15.40;;;5.80;99.90;;;;;;5036432;28;20488;-69
2020/12/05 08:47:56;;;;;;;19.80;14.17;;;5.80;99.90;;;;;;5035625;28;20917;-70
2020/12/05 08:50:29;;;;;;;21.30;14.33;;;5.90;99.90;;;;;;5035920;28;20448;-61
2020/12/05 08:52:58;;;;;;;23.73;14.67;;;5.80;99.90;;;;;;5035760;28;20476;-69
2020/12/05 08:55:26;;;;;;;20.20;14.73;;;5.80;99.90;;;;;;5035674;28;20908;-70
2020/12/05 08:57:54;;;;;;;17.80;13.50;;;5.80;99.90;;;;;;5035648;28;20526;-70
2020/12/05 09:00:20;;;;;;;17.40;13.10;;;5.80;99.90;;;;;;5035038;28;20484;-71
2020/12/05 09:02:46;;;;;;;21.60;13.90;;;5.80;99.90;;;;;;5035002;28;20966;-60
2020/12/05 09:05:12;;;;;;;20.90;14.30;;;5.80;99.90;;;;;;5035275;28;20822;-70
2020/12/05 09:07:39;;;;;;;19.67;15.00;;;5.80;99.90;;;;;;5034618;28;20913;-70
2020/12/05 09:10:15;;;;;;;22.13;14.40;;;5.90;99.90;;;;;;5034567;28;20456;-60
2020/12/05 09:12:41;;;;;;;23.40;14.10;;;5.80;99.90;;;;;;5034947;28;20506;-70
2020/12/05 09:15:07;;;;;;;22.90;14.90;;;5.80;99.90;;;;;;5034915;28;20585;-70
2020/12/05 09:17:34;;;;;;;23.50;15.10;;;5.80;99.90;;;;;;5034848;28;20791;-70
2020/12/05 09:20:14;;;;;;;21.30;14.43;;;5.80;99.90;;;;;;5035126;28;20515;-71
2020/12/05 09:22:46;;;;;;;20.53;15.20;;;5.80;99.90;;;;;;5035023;28;20447;-61
2020/12/05 09:25:24;;;;;;;21.67;15.03;;;5.90;99.90;;;;;;5035046;28;20436;-59
2020/12/05 09:27:50;;;;;;;20.90;13.97;;;6.00;99.90;;;;;;5034609;28;20465;-72
2020/12/05 09:30:16;;;;;;;20.20;14.20;;;6.00;99.90;;;;;;5034712;28;20924;-71
2020/12/05 09:32:44;;;;;;;16.00;14.20;;;6.20;99.90;;;;;;5034740;28;20506;-70
2020/12/05 09:35:12;;;;;;;18.73;13.60;;;6.30;99.90;;;;;;5034811;28;20494;-60
2020/12/05 09:37:38;;;;;;;19.20;13.97;;;6.40;99.90;;;;;;5034869;28;20456;-71
2020/12/05 09:40:07;;;;;;;24.37;13.40;;;6.50;99.90;;;;;;5034765;28;20488;-60
2020/12/05 09:42:33;;;;;;;19.20;12.97;;;6.50;99.90;;;;;;5034722;28;20476;-60
2020/12/05 09:44:59;;;;;;;22.67;14.90;;;6.60;99.90;;;;;;5035114;28;20522;-71
2020/12/05 09:47:25;;;;;;;23.87;15.73;;;6.60;99.90;;;;;;5034538;28;20457;-71
2020/12/05 09:49:52;;;;;;;18.87;13.73;;;6.70;99.90;;;;;;5035282;28;20448;-71
2020/12/05 09:52:18;;;;;;;19.33;14.00;;;6.70;99.90;;;;;;5034839;28;20460;-71
2020/12/05 09:54:44;;;;;;;21.70;15.13;;;6.70;99.90;;;;;;5035023;28;20830;-61
2020/12/05 09:57:11;;;;;;;23.97;12.87;;;6.60;99.90;;;;;;5035052;28;20459;-60
2020/12/05 09:59:37;;;;;;;22.03;12.53;;;6.60;99.90;;;;;;5035395;28;20561;-60
2020/12/05 10:02:03;;;;;;;16.10;12.10;;;6.70;99.90;;;;;;5035181;28;20530;-60
2020/12/05 10:04:30;;;;;;;15.03;11.60;;;6.70;99.90;;;;;;5035488;28;20909;-60
2020/12/05 10:06:56;;;;;;;17.10;12.00;;;6.70;99.90;;;;;;5038483;28;20452;-60
2020/12/05 10:09:22;;;;;;;17.77;11.90;;;6.80;99.90;;;;;;5039441;28;20857;-61
2020/12/05 10:11:48;;;;;;;17.30;11.77;;;6.80;99.90;;;;;;5038256;28;20456;-60
2020/12/05 10:14:15;;;;;;;19.00;13.20;;;6.90;99.90;;;;;;5038446;28;20517;-60
2020/12/05 10:16:41;;;;;;;16.87;12.17;;;7.00;99.90;;;;;;5038509;28;20517;-59
2020/12/05 10:19:07;;;;;;;16.17;11.40;;;7.10;99.90;;;;;;5037894;28;20480;-60
2020/12/05 10:21:34;;;;;;;15.40;10.80;;;7.20;99.90;;;;;;5037760;28;20916;-60
2020/12/05 10:24:00;;;;;;;16.03;11.73;;;7.30;99.90;;;;;;5038383;28;20521;-60
2020/12/05 10:26:26;;;;;;;17.50;12.03;;;7.40;99.90;;;;;;5038186;28;20456;-61
2020/12/05 10:28:52;;;;;;;16.10;11.17;;;7.40;99.90;;;;;;5037789;28;20846;-60
2020/12/05 10:31:19;;;;;;;19.37;12.40;;;7.60;99.90;;;;;;5037552;28;20518;-61
2020/12/05 10:33:45;;;;;;;19.00;12.47;;;7.70;99.90;;;;;;5037743;28;20537;-61
2020/12/05 10:36:11;;;;;;;19.10;11.87;;;7.80;99.90;;;;;;5038045;28;20509;-61
2020/12/05 10:38:37;;;;;;;16.90;12.37;;;7.80;99.90;;;;;;5038658;28;20498;-62
2020/12/05 10:41:03;;;;;;;14.73;11.50;;;7.80;99.90;;;;;;5038643;28;20470;-60
2020/12/05 10:43:30;;;;;;;18.40;12.93;;;7.90;99.90;;;;;;5036984;28;20554;-61
2020/12/05 10:45:56;;;;;;;13.80;10.97;;;7.80;99.90;;;;;;5037310;28;20456;-61
2020/12/05 10:48:23;;;;;;;16.93;11.70;;;7.90;99.90;;;;;;5038564;28;20987;-61
2020/12/05 10:50:49;;;;;;;16.70;11.80;;;7.90;99.90;;;;;;5037625;28;20838;-61
2020/12/05 10:53:15;;;;;;;13.10;10.53;;;8.00;99.90;;;;;;5037401;28;20529;-62
2020/12/05 10:55:41;;;;;;;15.17;10.73;;;8.00;99.90;;;;;;5037215;28;20529;-62
2020/12/05 10:58:07;;;;;;;14.47;10.57;;;8.00;99.90;;;;;;5036857;28;20456;-62
2020/12/05 11:00:34;;;;;;;19.50;11.97;;;8.10;99.90;;;;;;5037622;28;20544;-60
2020/12/05 11:03:00;;;;;;;15.20;10.87;;;8.20;99.90;;;;;;5037140;28;20456;-61
2020/12/05 11:05:27;;;;;;;13.93;9.67;;;8.30;99.90;;;;;;5037074;28;20456;-60
2020/12/05 11:07:53;;;;;;;15.37;10.67;;;8.40;99.90;;;;;;5037164;28;20463;-62
2020/12/05 11:10:19;;;;;;;15.07;10.77;;;8.40;99.90;;;;;;5036426;28;20456;-61
2020/12/05 11:12:45;;;;;;;17.83;10.33;;;8.40;99.90;;;;;;5036599;28;20912;-60
2020/12/05 11:15:11;;;;;;;17.63;11.23;;;8.50;99.90;;;;;;5037286;28;20518;-62
2020/12/05 11:17:37;;;;;;;15.83;10.47;;;8.50;99.90;;;;;;5036475;28;20459;-62
2020/12/05 11:20:04;;;;;;;13.53;9.73;;;8.50;99.90;;;;;;5036604;28;20483;-60
2020/12/05 11:22:30;;;;;;;14.13;10.50;;;8.50;99.90;;;;;;5036539;28;20456;-61
2020/12/05 11:24:57;;;;;;;16.80;9.80;;;8.50;99.90;;;;;;5036535;28;20839;-60
2020/12/05 11:27:23;;;;;;;13.57;10.10;;;8.50;99.90;;;;;;5036360;28;20470;-60
2020/12/05 11:29:49;;;;;;;17.07;10.60;;;8.50;99.90;;;;;;5037067;28;20456;-61
2020/12/05 11:32:15;;;;;;;16.73;11.23;;;8.40;99.90;;;;;;5036611;28;20522;-61
2020/12/05 11:34:41;;;;;;;14.63;10.17;;;8.40;99.90;;;;;;5036996;28;20591;-61
2020/12/05 11:37:07;;;;;;;14.37;10.50;;;8.50;99.90;;;;;;5036849;28;20455;-60
2020/12/05 11:39:34;;;;;;;15.17;11.00;;;8.40;99.90;;;;;;5038428;28;20593;-61
2020/12/05 11:42:00;;;;;;;15.30;10.27;;;8.40;99.90;;;;;;5036802;28;20480;-62
2020/12/05 11:44:26;;;;;;;15.30;11.03;;;8.40;99.90;;;;;;5036421;28;20521;-61
2020/12/05 11:46:52;;;;;;;15.63;10.77;;;8.40;99.90;;;;;;5036250;28;20526;-62
2020/12/05 11:49:18;;;;;;;13.83;10.30;;;8.50;99.90;;;;;;5036101;28;20448;-60
2020/12/05 11:51:45;;;;;;;13.70;10.67;;;8.50;99.90;;;;;;5039641;28;20467;-70
2020/12/05 11:54:11;;;;;;;16.65;12.27;;;8.50;99.90;;;;;;5035389;28;20524;-69
2020/12/05 11:56:39;;;;;;;14.83;10.77;;;8.50;99.90;;;;;;5036125;28;20198;-68
2020/12/05 11:59:05;;;;;;;15.87;11.63;;;8.60;99.90;;;;;;5036037;28;20549;-69
2020/12/05 12:01:31;;;;;;;15.03;11.17;;;8.50;99.90;;;;;;5037039;28;20463;-69
2020/12/05 12:03:58;;;;;;;17.27;11.73;;;8.50;99.90;;;;;;5038429;28;20448;-62
2020/12/05 12:06:24;;;;;;;18.13;11.40;;;8.40;99.90;;;;;;5039785;28;20453;-60
2020/12/05 12:08:50;;;;;;;15.17;10.73;;;8.50;99.90;;;;;;5039733;28;20452;-62
2020/12/05 12:11:17;;;;;;;12.90;10.43;;;8.40;99.90;;;;;;5037089;28;20459;-64
2020/12/05 12:13:44;;;;;;;16.10;10.97;;;8.40;99.90;;;;;;5041957;28;20514;-61
2020/12/05 12:16:12;;;;;;;19.40;11.40;;;8.40;99.90;;;;;;5037472;28;20920;-64
2020/12/05 12:18:39;;;;;;;18.17;11.23;;;8.40;99.90;;;;;;5036347;28;20452;-60
2020/12/05 12:21:05;;;;;;;17.43;11.80;;;8.40;99.90;;;;;;5036190;28;20508;-61
2020/12/05 12:23:31;;;;;;;19.00;11.97;;;8.30;99.90;;;;;;5036073;28;20786;-62
2020/12/05 12:25:58;;;;;;;15.10;11.70;;;8.40;99.90;;;;;;5035735;28;20932;-60
2020/12/05 12:28:24;;;;;;;16.87;12.13;;;8.30;99.90;;;;;;5035254;28;20837;-61
2020/12/05 12:30:51;;;;;;;16.40;12.97;;;8.20;99.90;;;;;;5037328;28;20456;-61
2020/12/05 12:33:17;;;;;;;16.77;12.10;;;8.30;99.90;;;;;;5036602;28;20933;-61
2020/12/05 12:35:44;;;;;;;17.87;11.33;;;8.20;99.90;;;;;;5037005;28;20456;-61
2020/12/05 12:38:10;;;;;;;16.33;11.60;;;8.10;99.90;;;;;;5036624;28;20452;-61
2020/12/05 12:40:36;;;;;;;19.40;13.33;;;8.20;99.90;;;;;;5037139;28;20495;-61